WetterOnline ( http://www.wetteronline.de )

Wetter aktuell Freising

Aktuelles Wetter: Weihenstephan-Dürnast (478m)

6-stündlich | Neueste Meldungen
Ortszeit Temperatur Wetter
Mi, 18.07. 8:00 18.2° C wolkenlos
Mi, 18.07. 2:00 16.2° C leicht bewölkt
Di, 17.07. 20:00 21.5° C wolkig
Di, 17.07. 14:00 25.4° C leicht bewölkt
Di, 17.07. 8:00 15.7° C leicht bewölkt
Di, 17.07. 2:00 12.9° C wolkenlos
Mo, 16.07. 20:00 22.1° C wolkenlos
Mo, 16.07. 14:00 23.1° C wolkig
Ortszeit Temperatur Wetter
Mi, 18.07. 10:00 22.4° C wolkenlos
Mi, 18.07. 9:40 21.6° C wolkenlos
Mi, 18.07. 9:30 20.5° C leicht bewölkt
Mi, 18.07. 9:20 20.5° C leicht bewölkt
Mi, 18.07. 9:10 20.0° C leicht bewölkt
Mi, 18.07. 9:00 19.4° C fast wolkenlos
Mi, 18.07. 8:50 19.4° C fast wolkenlos
Mi, 18.07. 8:30 19.1° C wolkenlos
Mi, 18.07. 8:00 18.2° C wolkenlos
Mi, 18.07. 7:30 16.3° C wolkenlos
Mi, 18.07. 7:00 15.5° C leicht bewölkt
Ortszeit Relative Feuchte Sichtweite
Mi, 18.07. 8:00 70% 22 km
Mi, 18.07. 2:00 78% 30 km
Di, 17.07. 20:00 59% 25 km
Di, 17.07. 14:00 37% 21 km
Di, 17.07. 8:00 89% 10 km
Di, 17.07. 2:00 98% 14 km
Mo, 16.07. 20:00 52% 35 km
Mo, 16.07. 14:00 51% 35 km
Ortszeit Relative Feuchte Sichtweite
Mi, 18.07. 10:00 58% 30 km
Mi, 18.07. 9:40 59% -
Mi, 18.07. 9:30 64% 35 km
Mi, 18.07. 9:20 64% -
Mi, 18.07. 9:10 64% -
Mi, 18.07. 9:00 64% 30 km
Mi, 18.07. 8:50 64% -
Mi, 18.07. 8:30 66% 18 km
Mi, 18.07. 8:00 70% 22 km
Mi, 18.07. 7:30 78% 25 km
Mi, 18.07. 7:00 80% 26 km
Ortszeit Niederschlagsmenge Niederschlagsart
Mi, 18.07. 8:00 0.0 l/m2 in 12 Std. -
Mi, 18.07. 2:00 0.0 l/m2 in 6 Std. -
Di, 17.07. 20:00 0.1 l/m2 in 12 Std. Regen
Di, 17.07. 14:00 0.0 l/m2 in 6 Std. -
Di, 17.07. 8:00 0.0 l/m2 in 12 Std. -
Di, 17.07. 2:00 0.0 l/m2 in 6 Std. -
Mo, 16.07. 20:00 3 l/m2 in 12 Std. -
Mo, 16.07. 14:00 3 l/m2 in 6 Std. Regen
Ortszeit Niederschlagsmenge Niederschlagsart
Mi, 18.07. 10:00 0.0 l/m2 in 1 Std. -
Mi, 18.07. 9:40 keine Meldung -
Mi, 18.07. 9:30 0.0 l/m2 in 1 Std. -
Mi, 18.07. 9:20 keine Meldung -
Mi, 18.07. 9:10 keine Meldung -
Mi, 18.07. 9:00 0.0 l/m2 in 1 Std. -
Mi, 18.07. 8:50 keine Meldung -
Mi, 18.07. 8:30 0.0 l/m2 in 1 Std. -
Mi, 18.07. 8:00 0.0 l/m2 in 1 Std. -
Mi, 18.07. 7:30 0.0 l/m2 in 1 Std. -
Mi, 18.07. 7:00 0.0 l/m2 in 1 Std. -
Ortszeit Stärke Spitze Richtung
km/h Bft. km/h Grad Sektor
Mi, 18.07. 8:00 13 3 26 290° W
Mi, 18.07. 2:00 18 3 36 260° W
Di, 17.07. 20:00 28 4 41 240° SW
Di, 17.07. 14:00 13 3 31 300° NW
Di, 17.07. 8:00 7 2 11 240° SW
Di, 17.07. 2:00 2 1 13 310° NW
Mo, 16.07. 20:00 9 2 20 10° N
Mo, 16.07. 14:00 6 1 22 120° SO
Ortszeit Stärke Spitze Richtung
km/h Bft. km/h Grad Sektor
Mi, 18.07. 10:00 9 2 19 290° W
Mi, 18.07. 9:40 11 2 - 280° W
Mi, 18.07. 9:30 9 2 19 280° W
Mi, 18.07. 9:20 9 2 - 280° W
Mi, 18.07. 9:10 11 2 - 280° W
Mi, 18.07. 9:00 14 3 25 280° W
Mi, 18.07. 8:50 14 3 - 280° W
Mi, 18.07. 8:30 15 3 22 290° W
Mi, 18.07. 8:00 13 3 19 290° W
Mi, 18.07. 7:30 11 2 18 260° W
Mi, 18.07. 7:00 11 2 22 270° W
Ortszeit Untergrenze Bedeckung Gattung
total tief tief mittel hoch
Mi, 18.07. 8:00 - 0/8 0/8 - - -
Mi, 18.07. 2:00 3300 m 3/8 3/8 - - -
Di, 17.07. 20:00 3900 m 6/8 6/8 - - -
Di, 17.07. 14:00 8400 m 8/8 0/8 - - -
Di, 17.07. 8:00 1800 m 6/8 1/8 - - -
Di, 17.07. 2:00 - 0/8 0/8 - - -
Mo, 16.07. 20:00 - 0/8 0/8 - - -
Mo, 16.07. 14:00 1260 m 8/8 5/8 - - -
Ortszeit Bedeckungsgrad in Achtel und Wolkenuntergrenze
Mi, 18.07. 10:00 keine Wolken
Mi, 18.07. 9:40 keine Wolken
Mi, 18.07. 9:30 3(2700m)
Mi, 18.07. 9:20 3(2700m)
Mi, 18.07. 9:10 4(2700m)
Mi, 18.07. 9:00 1(2700m)
Mi, 18.07. 8:50 1(2700m)
Mi, 18.07. 8:30 keine Wolken
Mi, 18.07. 8:00 keine Wolken
Mi, 18.07. 7:30 keine Wolken
Mi, 18.07. 7:00 2(3300m)
Ortszeit Luftdruck NN (hPa) Tendenz (hPa in 3 Std.)
Mi, 18.07. 8:00 1017 + 0,6
Mi, 18.07. 2:00 1016 + 0,5
Di, 17.07. 20:00 1014 - 0,1
Di, 17.07. 14:00 1013 - 0,5
Di, 17.07. 8:00 1015 + 1,0
Di, 17.07. 2:00 1014 + 0,9
Mo, 16.07. 20:00 1011 - 0,7
Mo, 16.07. 14:00 1012 - 1,3
Ortszeit Luftdruck NN (hPa) Tendenz (hPa in 3 Std.)
Mi, 18.07. 10:00 1016 + 0,5
Mi, 18.07. 9:40 1016 keine Meldung
Mi, 18.07. 9:30 1017 + 0,6
Mi, 18.07. 9:20 1017 keine Meldung
Mi, 18.07. 9:10 1017 keine Meldung
Mi, 18.07. 9:00 1017 + 0,8
Mi, 18.07. 8:50 1017 keine Meldung
Mi, 18.07. 8:30 1017 + 0,8
Mi, 18.07. 8:00 1017 + 0,6
Mi, 18.07. 7:30 1017 + 0,7
Mi, 18.07. 7:00 1017 + 0,5
Ortszeit Schneehöhe (cm)
Mi, 18.07. 8:00 -
Mi, 18.07. 2:00 -
Di, 17.07. 20:00 -
Di, 17.07. 14:00 -
Di, 17.07. 8:00 -
Di, 17.07. 2:00 -
Mo, 16.07. 20:00 -
Mo, 16.07. 14:00 -
Ortszeit Schneehöhe (cm)
Mi, 18.07. 10:00 -
Mi, 18.07. 9:40 -
Mi, 18.07. 9:30 -
Mi, 18.07. 9:20 -
Mi, 18.07. 9:10 -
Mi, 18.07. 9:00 -
Mi, 18.07. 8:50 -
Mi, 18.07. 8:30 -
Mi, 18.07. 8:00 -
Mi, 18.07. 7:30 -
Mi, 18.07. 7:00 -
Link zu dieser Seite / Seite empfehlen

Das Wetter in ...